Terminal Aerodrome Forecast
Issued by NWS North Platte, NE

Home | Current Version | Previous Version | Graphics & Text | Print | Product List | Glossary On
Versions: 1 2 3 4 5 6 7 8 9 10 11 12 13 14 15 16 17 18 19 20 21 22 23 24 25
643
FTUS43 KLBF 230520
TAFVTN
TAF
KVTN 230520Z 2306/2406 18014G24KT P6SM BKN120
     FM231100 17012KT P6SM OVC015
     FM231700 19010KT P6SM BKN050
     FM232200 26013KT P6SM SCT150
     FM240100 36014G26KT P6SM VCSH OVC025
     FM240300 36018G25KT 5SM SHRA OVC012=

USA.gov is the U.S. government's official web portal to all federal, state and local government web resources and services.